sensor_id;sensor_type;location;lat;lon;timestamp;pressure;altitude;pressure_sealevel;temperature;humidity
21902;BME280;11115;46.038;14.612;2022-09-01T00:01:27;98443.81;;;17.96;100.00
21902;BME280;11115;46.038;14.612;2022-09-01T00:03:57;98416.78;;;17.88;100.00
21902;BME280;11115;46.038;14.612;2022-09-01T00:06:38;98441.25;;;17.91;100.00
21902;BME280;11115;46.038;14.612;2022-09-01T00:09:20;98441.00;;;17.96;100.00
21902;BME280;11115;46.038;14.612;2022-09-01T00:11:55;98442.41;;;17.62;100.00
21902;BME280;11115;46.038;14.612;2022-09-01T00:14:40;98431.59;;;17.60;100.00
21902;BME280;11115;46.038;14.612;2022-09-01T00:17:22;98432.09;;;17.50;100.00
21902;BME280;11115;46.038;14.612;2022-09-01T00:19:56;98440.53;;;17.38;100.00
21902;BME280;11115;46.038;14.612;2022-09-01T00:22:31;98433.63;;;17.48;100.00
21902;BME280;11115;46.038;14.612;2022-09-01T00:25:07;98435.09;;;17.57;100.00
21902;BME280;11115;46.038;14.612;2022-09-01T00:27:50;98443.63;;;17.49;100.00
21902;BME280;11115;46.038;14.612;2022-09-01T00:30:28;98434.88;;;17.50;100.00
21902;BME280;11115;46.038;14.612;2022-09-01T00:32:58;98430.75;;;17.32;100.00
21902;BME280;11115;46.038;14.612;2022-09-01T00:35:42;98431.84;;;17.55;100.00
21902;BME280;11115;46.038;14.612;2022-09-01T00:38:20;98421.31;;;17.37;100.00
21902;BME280;11115;46.038;14.612;2022-09-01T00:41:04;98433.44;;;17.28;100.00
21902;BME280;11115;46.038;14.612;2022-09-01T00:43:43;98408.56;;;17.11;100.00
21902;BME280;11115;46.038;14.612;2022-09-01T00:46:31;98430.56;;;17.25;100.00
21902;BME280;11115;46.038;14.612;2022-09-01T00:52:45;98423.25;;;17.20;100.00
21902;BME280;11115;46.038;14.612;2022-09-01T00:55:24;98433.72;;;17.23;100.00
21902;BME280;11115;46.038;14.612;2022-09-01T00:57:55;98436.31;;;17.16;100.00
21902;BME280;11115;46.038;14.612;2022-09-01T01:00:33;98422.81;;;17.34;100.00
21902;BME280;11115;46.038;14.612;2022-09-01T01:03:11;98427.84;;;17.41;100.00
21902;BME280;11115;46.038;14.612;2022-09-01T01:05:43;98439.00;;;17.41;100.00
21902;BME280;11115;46.038;14.612;2022-09-01T01:08:14;98435.78;;;17.26;100.00
21902;BME280;11115;46.038;14.612;2022-09-01T01:10:48;98444.91;;;17.23;100.00
21902;BME280;11115;46.038;14.612;2022-09-01T01:13:26;98446.25;;;17.29;100.00
21902;BME280;11115;46.038;14.612;2022-09-01T01:16:07;98445.59;;;17.20;100.00
21902;BME280;11115;46.038;14.612;2022-09-01T01:18:38;98446.41;;;17.21;100.00
21902;BME280;11115;46.038;14.612;2022-09-01T01:21:32;98446.53;;;17.24;100.00
21902;BME280;11115;46.038;14.612;2022-09-01T01:24:31;98447.81;;;17.15;100.00
21902;BME280;11115;46.038;14.612;2022-09-01T01:27:19;98443.75;;;17.12;100.00
21902;BME280;11115;46.038;14.612;2022-09-01T01:29:54;98427.44;;;17.14;100.00
21902;BME280;11115;46.038;14.612;2022-09-01T01:32:24;98442.13;;;17.11;100.00
21902;BME280;11115;46.038;14.612;2022-09-01T01:34:52;98447.75;;;16.99;100.00
21902;BME280;11115;46.038;14.612;2022-09-01T01:37:28;98405.66;;;16.80;100.00
21902;BME280;11115;46.038;14.612;2022-09-01T01:40:03;98454.50;;;16.98;100.00
21902;BME280;11115;46.038;14.612;2022-09-01T01:42:35;98446.59;;;17.00;100.00
21902;BME280;11115;46.038;14.612;2022-09-01T01:45:07;98447.50;;;17.04;100.00
21902;BME280;11115;46.038;14.612;2022-09-01T01:47:56;98446.13;;;16.86;100.00
21902;BME280;11115;46.038;14.612;2022-09-01T01:50:32;98447.97;;;16.94;100.00
21902;BME280;11115;46.038;14.612;2022-09-01T01:53:06;98447.66;;;16.83;100.00
21902;BME280;11115;46.038;14.612;2022-09-01T01:55:40;98430.91;;;16.71;100.00
21902;BME280;11115;46.038;14.612;2022-09-01T01:58:14;98443.91;;;16.91;100.00
21902;BME280;11115;46.038;14.612;2022-09-01T02:00:52;98448.47;;;16.59;100.00
21902;BME280;11115;46.038;14.612;2022-09-01T02:03:25;98433.69;;;16.47;100.00
21902;BME280;11115;46.038;14.612;2022-09-01T02:05:59;98445.19;;;16.57;100.00
21902;BME280;11115;46.038;14.612;2022-09-01T02:08:41;98453.69;;;16.61;100.00
21902;BME280;11115;46.038;14.612;2022-09-01T02:11:21;98438.34;;;16.43;100.00
21902;BME280;11115;46.038;14.612;2022-09-01T02:13:55;98446.47;;;16.23;100.00
21902;BME280;11115;46.038;14.612;2022-09-01T02:16:28;98439.84;;;16.40;100.00
21902;BME280;11115;46.038;14.612;2022-09-01T02:19:06;98451.84;;;16.41;100.00
21902;BME280;11115;46.038;14.612;2022-09-01T02:21:47;98425.41;;;16.26;100.00
21902;BME280;11115;46.038;14.612;2022-09-01T02:24:27;98444.72;;;16.31;100.00
21902;BME280;11115;46.038;14.612;2022-09-01T02:27:05;98429.13;;;16.30;100.00
21902;BME280;11115;46.038;14.612;2022-09-01T02:29:41;98434.59;;;16.26;100.00
21902;BME280;11115;46.038;14.612;2022-09-01T02:32:09;98453.44;;;16.29;100.00
21902;BME280;11115;46.038;14.612;2022-09-01T02:34:57;98447.63;;;16.34;100.00
21902;BME280;11115;46.038;14.612;2022-09-01T02:37:33;98445.66;;;16.23;100.00
21902;BME280;11115;46.038;14.612;2022-09-01T02:40:08;98453.88;;;16.19;100.00
21902;BME280;11115;46.038;14.612;2022-09-01T02:42:38;98453.56;;;16.33;100.00
21902;BME280;11115;46.038;14.612;2022-09-01T02:45:09;98448.78;;;16.21;100.00
21902;BME280;11115;46.038;14.612;2022-09-01T02:47:50;98439.00;;;16.27;100.00
21902;BME280;11115;46.038;14.612;2022-09-01T02:50:27;98453.06;;;16.19;100.00
21902;BME280;11115;46.038;14.612;2022-09-01T02:53:03;98447.63;;;16.22;100.00
21902;BME280;11115;46.038;14.612;2022-09-01T02:55:44;98449.59;;;16.22;100.00
21902;BME280;11115;46.038;14.612;2022-09-01T02:58:14;98451.34;;;16.26;100.00
21902;BME280;11115;46.038;14.612;2022-09-01T03:00:56;98446.47;;;16.23;100.00
21902;BME280;11115;46.038;14.612;2022-09-01T03:03:33;98442.50;;;16.24;100.00
21902;BME280;11115;46.038;14.612;2022-09-01T03:06:17;98446.13;;;16.25;100.00
21902;BME280;11115;46.038;14.612;2022-09-01T03:08:58;98450.66;;;16.29;100.00
21902;BME280;11115;46.038;14.612;2022-09-01T03:11:31;98444.38;;;16.20;100.00
21902;BME280;11115;46.038;14.612;2022-09-01T03:14:01;98443.41;;;16.16;100.00
21902;BME280;11115;46.038;14.612;2022-09-01T03:16:32;98451.31;;;16.02;100.00
21902;BME280;11115;46.038;14.612;2022-09-01T03:19:15;98429.59;;;16.20;100.00
21902;BME280;11115;46.038;14.612;2022-09-01T03:21:50;98443.06;;;16.18;100.00
21902;BME280;11115;46.038;14.612;2022-09-01T03:24:30;98457.13;;;16.09;100.00
21902;BME280;11115;46.038;14.612;2022-09-01T03:27:02;98440.28;;;16.05;100.00
21902;BME280;11115;46.038;14.612;2022-09-01T03:29:36;98449.47;;;16.18;100.00
21902;BME280;11115;46.038;14.612;2022-09-01T03:32:17;98448.75;;;16.09;100.00
21902;BME280;11115;46.038;14.612;2022-09-01T03:34:56;98440.34;;;15.97;100.00
21902;BME280;11115;46.038;14.612;2022-09-01T03:37:24;98464.28;;;15.86;100.00
21902;BME280;11115;46.038;14.612;2022-09-01T03:39:58;98457.66;;;15.90;100.00
21902;BME280;11115;46.038;14.612;2022-09-01T03:42:35;98452.84;;;15.78;100.00
21902;BME280;11115;46.038;14.612;2022-09-01T03:45:16;98449.91;;;16.08;100.00
21902;BME280;11115;46.038;14.612;2022-09-01T03:47:51;98436.19;;;16.03;100.00
21902;BME280;11115;46.038;14.612;2022-09-01T03:50:23;98439.47;;;16.05;100.00
21902;BME280;11115;46.038;14.612;2022-09-01T03:52:58;98442.47;;;16.12;100.00
21902;BME280;11115;46.038;14.612;2022-09-01T03:55:33;98450.28;;;16.06;100.00
21902;BME280;11115;46.038;14.612;2022-09-01T03:58:07;98440.13;;;15.90;100.00
21902;BME280;11115;46.038;14.612;2022-09-01T04:00:54;98443.69;;;15.57;100.00
21902;BME280;11115;46.038;14.612;2022-09-01T04:03:26;98437.56;;;15.97;100.00
21902;BME280;11115;46.038;14.612;2022-09-01T04:06:10;98436.28;;;15.94;100.00
21902;BME280;11115;46.038;14.612;2022-09-01T04:08:44;98443.59;;;15.87;100.00
21902;BME280;11115;46.038;14.612;2022-09-01T04:11:18;98446.69;;;15.73;100.00
21902;BME280;11115;46.038;14.612;2022-09-01T04:13:58;98436.91;;;15.67;100.00
21902;BME280;11115;46.038;14.612;2022-09-01T04:16:32;98450.53;;;15.81;100.00
21902;BME280;11115;46.038;14.612;2022-09-01T04:19:25;98441.50;;;15.84;100.00
21902;BME280;11115;46.038;14.612;2022-09-01T04:22:09;98440.88;;;15.78;100.00
21902;BME280;11115;46.038;14.612;2022-09-01T04:24:59;98432.78;;;15.85;100.00
21902;BME280;11115;46.038;14.612;2022-09-01T04:27:32;98413.31;;;15.64;100.00
21902;BME280;11115;46.038;14.612;2022-09-01T04:30:12;98425.13;;;15.82;100.00
21902;BME280;11115;46.038;14.612;2022-09-01T04:32:47;98428.84;;;15.86;100.00
21902;BME280;11115;46.038;14.612;2022-09-01T04:35:22;98428.50;;;15.88;100.00
21902;BME280;11115;46.038;14.612;2022-09-01T04:38:06;98420.00;;;15.84;100.00
21902;BME280;11115;46.038;14.612;2022-09-01T04:40:44;98417.56;;;15.95;100.00
21902;BME280;11115;46.038;14.612;2022-09-01T04:43:18;98429.88;;;15.94;100.00
21902;BME280;11115;46.038;14.612;2022-09-01T04:45:48;98407.28;;;15.74;100.00
21902;BME280;11115;46.038;14.612;2022-09-01T04:48:29;98402.00;;;15.82;100.00
21902;BME280;11115;46.038;14.612;2022-09-01T04:51:00;98421.44;;;16.02;100.00
21902;BME280;11115;46.038;14.612;2022-09-01T04:53:51;98419.19;;;15.96;100.00
21902;BME280;11115;46.038;14.612;2022-09-01T04:56:32;98415.94;;;15.94;100.00
21902;BME280;11115;46.038;14.612;2022-09-01T04:59:19;98399.66;;;15.84;100.00
21902;BME280;11115;46.038;14.612;2022-09-01T05:01:56;98414.78;;;15.95;100.00
21902;BME280;11115;46.038;14.612;2022-09-01T05:04:31;98419.84;;;15.81;100.00
21902;BME280;11115;46.038;14.612;2022-09-01T05:07:09;98415.59;;;15.95;100.00
21902;BME280;11115;46.038;14.612;2022-09-01T05:09:42;98403.28;;;15.84;100.00
21902;BME280;11115;46.038;14.612;2022-09-01T05:12:37;98418.97;;;15.89;100.00
21902;BME280;11115;46.038;14.612;2022-09-01T05:15:09;98416.88;;;15.98;100.00
21902;BME280;11115;46.038;14.612;2022-09-01T05:17:40;98424.22;;;16.02;100.00
21902;BME280;11115;46.038;14.612;2022-09-01T05:20:17;98422.38;;;16.06;100.00
21902;BME280;11115;46.038;14.612;2022-09-01T05:22:48;98420.13;;;15.88;100.00
21902;BME280;11115;46.038;14.612;2022-09-01T05:25:37;98414.28;;;15.81;100.00
21902;BME280;11115;46.038;14.612;2022-09-01T05:28:11;98419.19;;;15.84;100.00
21902;BME280;11115;46.038;14.612;2022-09-01T05:30:54;98422.22;;;15.91;100.00
21902;BME280;11115;46.038;14.612;2022-09-01T05:33:32;98409.19;;;15.95;100.00
21902;BME280;11115;46.038;14.612;2022-09-01T05:36:06;98421.44;;;16.15;100.00
21902;BME280;11115;46.038;14.612;2022-09-01T05:38:43;98417.34;;;15.88;100.00
21902;BME280;11115;46.038;14.612;2022-09-01T05:41:22;98416.06;;;15.85;100.00
21902;BME280;11115;46.038;14.612;2022-09-01T05:44:07;98420.78;;;15.72;100.00
21902;BME280;11115;46.038;14.612;2022-09-01T05:46:38;98425.19;;;15.73;100.00
21902;BME280;11115;46.038;14.612;2022-09-01T05:49:16;98410.91;;;15.75;100.00
21902;BME280;11115;46.038;14.612;2022-09-01T05:51:50;98414.16;;;15.77;100.00
21902;BME280;11115;46.038;14.612;2022-09-01T05:54:24;98428.84;;;15.86;100.00
21902;BME280;11115;46.038;14.612;2022-09-01T05:56:56;98429.44;;;15.92;100.00
21902;BME280;11115;46.038;14.612;2022-09-01T05:59:45;98425.81;;;15.91;100.00
21902;BME280;11115;46.038;14.612;2022-09-01T06:02:40;98441.91;;;16.06;100.00
21902;BME280;11115;46.038;14.612;2022-09-01T06:05:18;98449.22;;;15.66;100.00
21902;BME280;11115;46.038;14.612;2022-09-01T06:07:56;98448.66;;;15.72;100.00
21902;BME280;11115;46.038;14.612;2022-09-01T06:10:36;98463.81;;;15.84;100.00
21902;BME280;11115;46.038;14.612;2022-09-01T06:13:11;98463.38;;;15.94;100.00
21902;BME280;11115;46.038;14.612;2022-09-01T06:15:54;98465.69;;;15.92;100.00
21902;BME280;11115;46.038;14.612;2022-09-01T06:18:27;98460.97;;;16.04;100.00
21902;BME280;11115;46.038;14.612;2022-09-01T06:21:06;98474.53;;;15.94;100.00
21902;BME280;11115;46.038;14.612;2022-09-01T06:24:02;98470.81;;;15.90;100.00
21902;BME280;11115;46.038;14.612;2022-09-01T06:26:36;98468.59;;;15.95;100.00
21902;BME280;11115;46.038;14.612;2022-09-01T06:29:09;98467.78;;;15.95;100.00
21902;BME280;11115;46.038;14.612;2022-09-01T06:31:49;98472.31;;;15.87;100.00
21902;BME280;11115;46.038;14.612;2022-09-01T06:34:21;98473.94;;;15.88;100.00
21902;BME280;11115;46.038;14.612;2022-09-01T06:37:04;98482.34;;;16.00;100.00
21902;BME280;11115;46.038;14.612;2022-09-01T06:39:43;98485.97;;;16.01;100.00
21902;BME280;11115;46.038;14.612;2022-09-01T06:42:18;98499.38;;;16.20;100.00
21902;BME280;11115;46.038;14.612;2022-09-01T06:44:57;98499.09;;;16.13;100.00
21902;BME280;11115;46.038;14.612;2022-09-01T06:47:37;98500.72;;;16.01;100.00
21902;BME280;11115;46.038;14.612;2022-09-01T06:50:24;98496.19;;;16.09;100.00
21902;BME280;11115;46.038;14.612;2022-09-01T06:53:24;98490.53;;;16.30;100.00
21902;BME280;11115;46.038;14.612;2022-09-01T06:56:11;98502.63;;;16.22;100.00
21902;BME280;11115;46.038;14.612;2022-09-01T06:58:52;98450.50;;;16.01;100.00
21902;BME280;11115;46.038;14.612;2022-09-01T07:01:36;98497.75;;;16.31;100.00
21902;BME280;11115;46.038;14.612;2022-09-01T07:04:23;98483.22;;;16.37;100.00
21902;BME280;11115;46.038;14.612;2022-09-01T07:07:03;98492.06;;;16.27;100.00
21902;BME280;11115;46.038;14.612;2022-09-01T07:10:32;98508.94;;;16.55;100.00
21902;BME280;11115;46.038;14.612;2022-09-01T07:13:29;98508.72;;;16.48;100.00
21902;BME280;11115;46.038;14.612;2022-09-01T07:16:03;98498.09;;;16.29;100.00
21902;BME280;11115;46.038;14.612;2022-09-01T07:18:56;98490.84;;;16.16;100.00
21902;BME280;11115;46.038;14.612;2022-09-01T07:21:34;98486.00;;;16.37;100.00
21902;BME280;11115;46.038;14.612;2022-09-01T07:24:27;98503.09;;;16.36;100.00
21902;BME280;11115;46.038;14.612;2022-09-01T07:27:31;98470.31;;;16.21;100.00
21902;BME280;11115;46.038;14.612;2022-09-01T07:30:20;98499.16;;;16.37;100.00
21902;BME280;11115;46.038;14.612;2022-09-01T07:32:54;98493.47;;;16.46;100.00
21902;BME280;11115;46.038;14.612;2022-09-01T07:35:55;98490.81;;;16.61;100.00
21902;BME280;11115;46.038;14.612;2022-09-01T07:38:50;98500.72;;;16.59;100.00
21902;BME280;11115;46.038;14.612;2022-09-01T07:42:20;98494.41;;;16.50;100.00
21902;BME280;11115;46.038;14.612;2022-09-01T07:45:44;98504.44;;;16.63;100.00
21902;BME280;11115;46.038;14.612;2022-09-01T07:48:55;98497.94;;;16.71;100.00
21902;BME280;11115;46.038;14.612;2022-09-01T07:52:02;98493.88;;;16.68;100.00
21902;BME280;11115;46.038;14.612;2022-09-01T07:54:35;98486.50;;;16.64;100.00
21902;BME280;11115;46.038;14.612;2022-09-01T07:57:08;98490.22;;;16.56;100.00
21902;BME280;11115;46.038;14.612;2022-09-01T07:59:44;98500.44;;;16.52;100.00
21902;BME280;11115;46.038;14.612;2022-09-01T08:02:19;98497.97;;;16.26;100.00
21902;BME280;11115;46.038;14.612;2022-09-01T08:04:58;98504.69;;;16.13;100.00
21902;BME280;11115;46.038;14.612;2022-09-01T08:07:41;98483.88;;;16.10;100.00
21902;BME280;11115;46.038;14.612;2022-09-01T08:10:25;98483.59;;;16.60;100.00
21902;BME280;11115;46.038;14.612;2022-09-01T08:12:57;98499.66;;;16.63;100.00
21902;BME280;11115;46.038;14.612;2022-09-01T08:15:42;98496.59;;;16.56;100.00
21902;BME280;11115;46.038;14.612;2022-09-01T08:18:35;98491.63;;;16.62;100.00
21902;BME280;11115;46.038;14.612;2022-09-01T08:21:51;98488.75;;;16.71;100.00
21902;BME280;11115;46.038;14.612;2022-09-01T08:24:41;98485.13;;;16.94;100.00
21902;BME280;11115;46.038;14.612;2022-09-01T08:27:16;98486.41;;;16.85;100.00
21902;BME280;11115;46.038;14.612;2022-09-01T08:29:46;98491.63;;;17.11;100.00
21902;BME280;11115;46.038;14.612;2022-09-01T08:32:28;98492.22;;;16.92;100.00
21902;BME280;11115;46.038;14.612;2022-09-01T08:35:07;98495.00;;;17.16;100.00
21902;BME280;11115;46.038;14.612;2022-09-01T08:37:40;98445.66;;;16.59;100.00
21902;BME280;11115;46.038;14.612;2022-09-01T08:40:15;98501.06;;;17.06;100.00
21902;BME280;11115;46.038;14.612;2022-09-01T08:43:49;98501.88;;;16.94;100.00
21902;BME280;11115;46.038;14.612;2022-09-01T08:46:31;98498.41;;;16.85;100.00
21902;BME280;11115;46.038;14.612;2022-09-01T08:49:21;98498.69;;;17.33;100.00
21902;BME280;11115;46.038;14.612;2022-09-01T08:55:44;98501.94;;;17.35;100.00
21902;BME280;11115;46.038;14.612;2022-09-01T08:58:16;98505.84;;;17.18;100.00
21902;BME280;11115;46.038;14.612;2022-09-01T09:01:48;98510.47;;;17.26;100.00
21902;BME280;11115;46.038;14.612;2022-09-01T09:08:01;98511.84;;;17.32;100.00
21902;BME280;11115;46.038;14.612;2022-09-01T09:16:43;98508.56;;;17.42;100.00
21902;BME280;11115;46.038;14.612;2022-09-01T09:19:42;98506.34;;;17.48;100.00
21902;BME280;11115;46.038;14.612;2022-09-01T09:22:16;98506.59;;;17.43;100.00
21902;BME280;11115;46.038;14.612;2022-09-01T09:25:12;98509.75;;;17.41;100.00
21902;BME280;11115;46.038;14.612;2022-09-01T09:27:50;98505.38;;;17.56;100.00
21902;BME280;11115;46.038;14.612;2022-09-01T09:30:34;98510.09;;;17.40;100.00
21902;BME280;11115;46.038;14.612;2022-09-01T09:33:06;98509.53;;;17.22;100.00
21902;BME280;11115;46.038;14.612;2022-09-01T09:36:34;98503.81;;;17.30;100.00
21902;BME280;11115;46.038;14.612;2022-09-01T09:39:16;98509.19;;;17.76;100.00
21902;BME280;11115;46.038;14.612;2022-09-01T09:42:10;98502.25;;;17.57;100.00
21902;BME280;11115;46.038;14.612;2022-09-01T09:44:49;98509.84;;;17.33;100.00
21902;BME280;11115;46.038;14.612;2022-09-01T09:47:41;98518.75;;;17.22;100.00
21902;BME280;11115;46.038;14.612;2022-09-01T09:50:35;98521.66;;;17.26;100.00
21902;BME280;11115;46.038;14.612;2022-09-01T09:53:35;98515.78;;;17.43;100.00
21902;BME280;11115;46.038;14.612;2022-09-01T09:56:17;98520.47;;;17.15;100.00
21902;BME280;11115;46.038;14.612;2022-09-01T09:58:52;98515.03;;;17.18;100.00
21902;BME280;11115;46.038;14.612;2022-09-01T10:01:29;98504.69;;;17.47;100.00
21902;BME280;11115;46.038;14.612;2022-09-01T10:04:06;98495.53;;;17.34;100.00
21902;BME280;11115;46.038;14.612;2022-09-01T10:06:43;98514.44;;;17.13;100.00
21902;BME280;11115;46.038;14.612;2022-09-01T10:09:16;98509.59;;;17.50;100.00
21902;BME280;11115;46.038;14.612;2022-09-01T10:12:10;98506.59;;;17.43;100.00
21902;BME280;11115;46.038;14.612;2022-09-01T10:14:53;98498.81;;;17.36;100.00
21902;BME280;11115;46.038;14.612;2022-09-01T10:17:41;98502.44;;;17.24;100.00
21902;BME280;11115;46.038;14.612;2022-09-01T10:20:22;98507.22;;;17.24;100.00
21902;BME280;11115;46.038;14.612;2022-09-01T10:22:53;98497.66;;;17.25;100.00
21902;BME280;11115;46.038;14.612;2022-09-01T10:25:30;98498.81;;;17.36;100.00
21902;BME280;11115;46.038;14.612;2022-09-01T10:28:11;98501.25;;;17.38;100.00
21902;BME280;11115;46.038;14.612;2022-09-01T10:30:47;98500.44;;;17.37;100.00
21902;BME280;11115;46.038;14.612;2022-09-01T10:33:21;98509.47;;;17.46;100.00
21902;BME280;11115;46.038;14.612;2022-09-01T10:35:55;98506.13;;;17.41;100.00
21902;BME280;11115;46.038;14.612;2022-09-01T10:38:34;98501.81;;;17.31;100.00
21902;BME280;11115;46.038;14.612;2022-09-01T10:44:37;98495.56;;;17.62;100.00
21902;BME280;11115;46.038;14.612;2022-09-01T10:47:26;98501.09;;;17.46;100.00
21902;BME280;11115;46.038;14.612;2022-09-01T10:50:28;98500.56;;;17.28;100.00
21902;BME280;11115;46.038;14.612;2022-09-01T10:53:05;98499.84;;;17.32;100.00
21902;BME280;11115;46.038;14.612;2022-09-01T10:55:43;98503.19;;;17.49;100.00
21902;BME280;11115;46.038;14.612;2022-09-01T10:58:40;98484.50;;;17.53;100.00
21902;BME280;11115;46.038;14.612;2022-09-01T11:07:32;98466.72;;;17.46;100.00
21902;BME280;11115;46.038;14.612;2022-09-01T11:10:43;98494.19;;;17.96;100.00
21902;BME280;11115;46.038;14.612;2022-09-01T11:13:44;98474.38;;;17.89;100.00
21902;BME280;11115;46.038;14.612;2022-09-01T11:16:38;98485.41;;;17.98;100.00
21902;BME280;11115;46.038;14.612;2022-09-01T11:19:44;98481.91;;;17.73;100.00
21902;BME280;11115;46.038;14.612;2022-09-01T11:22:43;98491.97;;;17.62;100.00
21902;BME280;11115;46.038;14.612;2022-09-01T11:25:47;98482.72;;;17.33;100.00
21902;BME280;11115;46.038;14.612;2022-09-01T11:28:42;98483.59;;;17.49;100.00
21902;BME280;11115;46.038;14.612;2022-09-01T11:31:28;98479.44;;;17.43;100.00
21902;BME280;11115;46.038;14.612;2022-09-01T11:34:09;98452.25;;;17.56;100.00
21902;BME280;11115;46.038;14.612;2022-09-01T11:36:58;98478.59;;;17.55;100.00
21902;BME280;11115;46.038;14.612;2022-09-01T11:39:58;98460.47;;;17.65;100.00
21902;BME280;11115;46.038;14.612;2022-09-01T11:42:43;98479.91;;;17.73;100.00
21902;BME280;11115;46.038;14.612;2022-09-01T11:45:23;98470.03;;;17.64;100.00
21902;BME280;11115;46.038;14.612;2022-09-01T11:48:08;98477.19;;;17.49;100.00
21902;BME280;11115;46.038;14.612;2022-09-01T11:50:41;98471.78;;;17.68;100.00
21902;BME280;11115;46.038;14.612;2022-09-01T11:53:22;98471.44;;;17.70;100.00
21902;BME280;11115;46.038;14.612;2022-09-01T11:55:55;98468.63;;;17.98;100.00
21902;BME280;11115;46.038;14.612;2022-09-01T11:58:46;98472.91;;;17.79;100.00
21902;BME280;11115;46.038;14.612;2022-09-01T12:01:29;98478.38;;;17.48;100.00
21902;BME280;11115;46.038;14.612;2022-09-01T12:04:24;98483.31;;;17.67;100.00
21902;BME280;11115;46.038;14.612;2022-09-01T12:07:12;98472.72;;;17.60;100.00
21902;BME280;11115;46.038;14.612;2022-09-01T12:09:46;98463.63;;;17.63;100.00
21902;BME280;11115;46.038;14.612;2022-09-01T12:12:48;98466.28;;;17.72;100.00
21902;BME280;11115;46.038;14.612;2022-09-01T12:15:29;98470.94;;;17.80;100.00
21902;BME280;11115;46.038;14.612;2022-09-01T12:18:17;98467.47;;;17.71;100.00
21902;BME280;11115;46.038;14.612;2022-09-01T12:21:00;98473.41;;;17.69;100.00
21902;BME280;11115;46.038;14.612;2022-09-01T12:23:39;98474.09;;;17.66;100.00
21902;BME280;11115;46.038;14.612;2022-09-01T12:26:27;98474.09;;;17.66;100.00
21902;BME280;11115;46.038;14.612;2022-09-01T12:29:06;98467.31;;;17.79;100.00
21902;BME280;11115;46.038;14.612;2022-09-01T12:31:59;98466.19;;;17.96;100.00
21902;BME280;11115;46.038;14.612;2022-09-01T12:34:59;98465.06;;;18.13;100.00
21902;BME280;11115;46.038;14.612;2022-09-01T12:37:36;98473.63;;;18.20;100.00
21902;BME280;11115;46.038;14.612;2022-09-01T12:40:33;98469.34;;;18.10;100.00
21902;BME280;11115;46.038;14.612;2022-09-01T12:43:07;98466.94;;;18.25;100.00
21902;BME280;11115;46.038;14.612;2022-09-01T12:45:46;98472.88;;;18.07;100.00
21902;BME280;11115;46.038;14.612;2022-09-01T12:48:35;98468.13;;;18.24;100.00
21902;BME280;11115;46.038;14.612;2022-09-01T12:51:24;98478.47;;;18.07;100.00
21902;BME280;11115;46.038;14.612;2022-09-01T12:53:59;98463.88;;;18.30;100.00
21902;BME280;11115;46.038;14.612;2022-09-01T12:56:36;98477.88;;;18.14;100.00
21902;BME280;11115;46.038;14.612;2022-09-01T12:59:18;98485.81;;;18.28;100.00
21902;BME280;11115;46.038;14.612;2022-09-01T13:02:30;98483.06;;;18.00;100.00
21902;BME280;11115;46.038;14.612;2022-09-01T13:07:59;98474.72;;;18.15;100.00
21902;BME280;11115;46.038;14.612;2022-09-01T13:10:47;98455.22;;;17.91;100.00
21902;BME280;11115;46.038;14.612;2022-09-01T13:13:22;98472.25;;;17.98;100.00
21902;BME280;11115;46.038;14.612;2022-09-01T13:15:57;98480.31;;;18.15;100.00
21902;BME280;11115;46.038;14.612;2022-09-01T13:18:27;98472.25;;;17.98;100.00
21902;BME280;11115;46.038;14.612;2022-09-01T13:21:02;98482.38;;;18.18;100.00
21902;BME280;11115;46.038;14.612;2022-09-01T13:23:33;98481.38;;;18.11;100.00
21902;BME280;11115;46.038;14.612;2022-09-01T13:26:05;98475.59;;;18.04;100.00
21902;BME280;11115;46.038;14.612;2022-09-01T13:28:42;98477.56;;;18.03;100.00
21902;BME280;11115;46.038;14.612;2022-09-01T13:31:24;98472.03;;;17.91;100.00
21902;BME280;11115;46.038;14.612;2022-09-01T13:34:03;98469.56;;;18.17;100.00
21902;BME280;11115;46.038;14.612;2022-09-01T13:36:40;98421.88;;;17.98;100.00
21902;BME280;11115;46.038;14.612;2022-09-01T13:39:21;98447.78;;;18.27;100.00
21902;BME280;11115;46.038;14.612;2022-09-01T13:41:55;98453.31;;;18.23;100.00
21902;BME280;11115;46.038;14.612;2022-09-01T13:44:30;98470.00;;;18.19;100.00
21902;BME280;11115;46.038;14.612;2022-09-01T13:47:13;98471.81;;;18.28;100.00
21902;BME280;11115;46.038;14.612;2022-09-01T13:49:55;98468.38;;;18.18;100.00
21902;BME280;11115;46.038;14.612;2022-09-01T13:52:49;98468.28;;;17.99;100.00
21902;BME280;11115;46.038;14.612;2022-09-01T13:55:35;98452.84;;;18.21;100.00
21902;BME280;11115;46.038;14.612;2022-09-01T13:58:07;98453.91;;;18.01;100.00
21902;BME280;11115;46.038;14.612;2022-09-01T14:00:39;98467.19;;;18.04;100.00
21902;BME280;11115;46.038;14.612;2022-09-01T14:03:19;98456.66;;;18.13;100.00
21902;BME280;11115;46.038;14.612;2022-09-01T14:05:50;98464.03;;;18.05;100.00
21902;BME280;11115;46.038;14.612;2022-09-01T14:08:25;98457.13;;;17.87;100.00
21902;BME280;11115;46.038;14.612;2022-09-01T14:11:00;98461.81;;;17.83;100.00
21902;BME280;11115;46.038;14.612;2022-09-01T14:13:32;98462.00;;;17.74;100.00
21902;BME280;11115;46.038;14.612;2022-09-01T14:16:12;98456.06;;;17.92;100.00
21902;BME280;11115;46.038;14.612;2022-09-01T14:18:47;98451.84;;;17.98;100.00
21902;BME280;11115;46.038;14.612;2022-09-01T14:21:33;98447.88;;;17.99;100.00
21902;BME280;11115;46.038;14.612;2022-09-01T14:24:17;98445.13;;;17.86;100.00